Portada
METAR-TAF:

METAR-TAF

Aeroports :

Pruniers

Romorantin-Lanthenay, França

latitud: 47-19N, longitud: 001-41E, altitud: 85 m

Observació

L'informe es va fer fa 13 minuts, a les 17:30 UTC
Vent 14 kt del Oest/Sud-Oest, variant entre Sud/Sud-Oest i Oest
Temperatura 10°C
Humitat 71%
Pressió 1007 hPa
Visibilitat 10 km o més
pluja

METAR: LFYR 251730Z AUTO 24014KT 210V270 9999 -RA FEW032/// BKN080/// OVC100/// ///TCU 10/05 Q1007

Hora: 18:43 (17:43 UTC)


TAF: manca

Observacions i pronòstics meteorològics de més de 4000 aeroports (METAR i TAF).

Les estacions disponibles són els punts grocs i vermells al mapa.

Posi el ratolí al punt desitjat per veure el nom de l'estació.

Feu clic per veure les observacions i els pronòstics meteorològics.

Per canviar el mapa: feu clic els botons verds amb una creu de color negre per apropar; al botó verd amb un guió per allunyar la imatge; o en les fletxes verdes per a mapes adjacents.


METAR-TAF: